Time;durP1;ratioP1;P1;durP2;ratioP2;P2;SDS_P1;SDS_P2;PMS_P1;PMS_P2;Temp;Humidity;BMP_temperature;BMP_pressure;BME280_temperature;BME280_humidity;BME280_pressure;Samples;Min_cycle;Max_cycle;Signal;HPM_P1;HPM_P2
2024/01/31 00:01:56;;;;;;;16.83;7.65;;;;;;;7.17;100.00;103265.88;5013821;28;20022;-68
2024/01/31 00:04:21;;;;;;;18.33;7.90;;;;;;;7.19;100.00;103268.53;5013408;28;20052;-68
2024/01/31 00:06:50;;;;;;;10.52;7.28;;;;;;;7.13;100.00;103263.28;5011023;28;20030;-68
2024/01/31 00:09:15;;;;;;;13.93;7.53;;;;;;;7.15;100.00;103259.75;5012811;28;20038;-68
2024/01/31 00:11:41;;;;;;;12.18;7.65;;;;;;;7.11;100.00;103257.13;5011295;28;20033;-68
2024/01/31 00:14:07;;;;;;;18.70;7.13;;;;;;;7.17;100.00;103271.16;5013003;28;20389;-68
2024/01/31 00:16:33;;;;;;;16.65;7.18;;;;;;;7.16;100.00;103263.25;5011669;28;20018;-68
2024/01/31 00:18:59;;;;;;;20.05;7.28;;;;;;;7.11;100.00;103258.00;5012977;28;20508;-68
2024/01/31 00:21:24;;;;;;;14.23;6.30;;;;;;;7.15;100.00;103272.09;4994378;28;20033;-68
2024/01/31 00:23:49;;;;;;;12.85;6.05;;;;;;;7.14;100.00;103272.97;5011949;28;20030;-68
2024/01/31 00:26:17;;;;;;;15.77;6.47;;;;;;;7.13;100.00;103292.41;5011649;28;20144;-68
2024/01/31 00:28:42;;;;;;;9.63;5.70;;;;;;;7.13;100.00;103285.34;5012733;28;20029;-68
2024/01/31 00:31:11;;;;;;;12.48;6.40;;;;;;;7.09;100.00;103282.72;5012257;28;20025;-68
2024/01/31 00:33:37;;;;;;;12.73;5.95;;;;;;;7.10;100.00;103292.44;5011093;28;20112;-68
2024/01/31 00:36:02;;;;;;;14.63;5.97;;;;;;;7.10;100.00;103297.72;5011418;28;20531;-68
2024/01/31 00:38:28;;;;;;;15.63;5.65;;;;;;;7.08;100.00;103299.50;5010054;28;20032;-68
2024/01/31 00:40:54;;;;;;;16.05;5.45;;;;;;;7.08;100.00;103299.50;5010927;28;20044;-68
2024/01/31 00:43:19;;;;;;;11.77;4.68;;;;;;;7.07;100.00;103298.63;5011673;28;20057;-68
2024/01/31 00:45:45;;;;;;;13.90;5.32;;;;;;;7.07;100.00;103305.69;5010787;28;20115;-68
2024/01/31 00:48:10;;;;;;;13.90;4.72;;;;;;;7.04;100.00;103302.16;5010383;28;20033;-69
2024/01/31 00:50:36;;;;;;;12.93;5.40;;;;;;;7.08;100.00;103310.09;5012194;28;20026;-68
2024/01/31 00:53:01;;;;;;;7.82;4.20;;;;;;;7.03;100.00;103308.38;5010122;28;20022;-68
2024/01/31 00:55:26;;;;;;;12.65;5.22;;;;;;;7.05;100.00;103300.41;5011110;28;20489;-69
2024/01/31 00:57:52;;;;;;;14.30;6.13;;;;;;;7.05;100.00;103309.22;5011150;28;20033;-68
2024/01/31 01:00:17;;;;;;;21.50;5.05;;;;;;;7.04;100.00;103303.94;5011796;28;20049;-68
2024/01/31 01:02:43;;;;;;;12.90;4.45;;;;;;;6.99;100.00;103301.31;5011201;28;20109;-68
2024/01/31 01:05:10;;;;;;;11.45;4.18;;;;;;;7.02;100.00;103321.59;5010387;28;20064;-68
2024/01/31 01:07:40;;;;;;;17.90;4.70;;;;;;;7.01;100.00;103311.91;5011227;28;20071;-68
2024/01/31 01:10:15;;;;;;;15.07;4.53;;;;;;;7.02;100.00;103313.66;5009953;28;20028;-68
2024/01/31 01:12:44;;;;;;;15.38;5.03;;;;;;;7.01;100.00;103325.16;5010520;28;20057;-68
2024/01/31 01:15:10;;;;;;;10.40;4.25;;;;;;;7.00;100.00;103320.72;5009909;28;20025;-68
2024/01/31 01:17:36;;;;;;;8.38;3.85;;;;;;;6.97;100.00;103324.28;5010878;28;20087;-68
2024/01/31 01:20:01;;;;;;;10.10;4.15;;;;;;;6.97;100.00;103319.00;5009234;28;20029;-68
2024/01/31 01:22:27;;;;;;;8.85;4.07;;;;;;;6.91;100.00;103302.28;5009072;28;20022;-68
2024/01/31 01:24:52;;;;;;;7.93;3.97;;;;;;;6.97;100.00;103321.66;5011113;28;20026;-68
2024/01/31 01:27:18;;;;;;;9.07;4.55;;;;;;;6.94;100.00;103321.69;5009332;28;20469;-68
2024/01/31 01:29:44;;;;;;;15.95;4.65;;;;;;;6.94;100.00;103323.41;5010268;28;20040;-68
2024/01/31 01:32:09;;;;;;;11.15;4.55;;;;;;;6.94;100.00;103319.03;5010917;28;20030;-68
2024/01/31 01:34:35;;;;;;;9.98;4.57;;;;;;;6.96;100.00;103329.59;5009494;28;20358;-68
2024/01/31 01:37:00;;;;;;;11.00;4.00;;;;;;;6.92;100.00;103318.16;5009840;28;20041;-68
2024/01/31 01:39:26;;;;;;;9.85;3.83;;;;;;;6.77;100.00;103295.34;5011080;28;20038;-68
2024/01/31 01:41:51;;;;;;;7.22;3.85;;;;;;;6.88;100.00;103316.41;5010019;28;20041;-68
2024/01/31 01:44:17;;;;;;;9.38;4.03;;;;;;;6.91;100.00;103324.34;5010640;28;20053;-68
2024/01/31 01:46:44;;;;;;;11.52;4.20;;;;;;;6.92;100.00;103322.56;5009309;28;20026;-68
2024/01/31 01:49:12;;;;;;;8.30;3.95;;;;;;;6.91;100.00;103329.63;5010746;28;20030;-68
2024/01/31 01:51:39;;;;;;;9.68;3.95;;;;;;;6.88;100.00;103319.06;5010284;28;20033;-68
2024/01/31 01:54:05;;;;;;;13.57;5.68;;;;;;;6.88;100.00;103313.75;5010870;28;20030;-68
2024/01/31 01:56:30;;;;;;;10.10;4.15;;;;;;;6.90;100.00;103317.28;5010408;28;20403;-68
2024/01/31 01:58:57;;;;;;;11.98;4.28;;;;;;;6.92;100.00;103319.94;5010575;28;20034;-68
2024/01/31 02:01:26;;;;;;;10.57;4.82;;;;;;;6.91;100.00;103321.69;5007982;28;20033;-68
2024/01/31 02:03:54;;;;;;;9.43;4.45;;;;;;;6.87;100.00;103308.50;5010745;28;20034;-68
2024/01/31 02:06:22;;;;;;;12.77;4.22;;;;;;;6.87;100.00;103317.31;5008940;28;20504;-68
2024/01/31 02:08:48;;;;;;;7.65;3.90;;;;;;;6.85;100.00;103316.44;5007913;28;20026;-68
2024/01/31 02:11:14;;;;;;;6.90;4.10;;;;;;;6.80;100.00;103308.53;5009581;28;20018;-68
2024/01/31 02:13:39;;;;;;;7.95;4.07;;;;;;;6.84;100.00;103314.69;5008842;28;20401;-68
2024/01/31 02:16:05;;;;;;;9.73;4.00;;;;;;;6.82;100.00;103309.44;5009980;28;20061;-68
2024/01/31 02:18:33;;;;;;;17.73;4.18;;;;;;;6.83;100.00;103319.09;5008604;28;20378;-68
2024/01/31 02:20:58;;;;;;;4.88;4.00;;;;;;;6.83;100.00;103316.47;5010004;28;20020;-68
2024/01/31 02:23:24;;;;;;;8.68;4.65;;;;;;;6.80;100.00;103310.31;5008409;28;20022;-68
2024/01/31 02:25:49;;;;;;;10.02;4.13;;;;;;;6.72;100.00;103299.78;5009981;28;20044;-68
2024/01/31 02:28:15;;;;;;;7.45;5.45;;;;;;;6.78;100.00;103307.66;5009609;28;20044;-68
2024/01/31 02:30:41;;;;;;;11.52;4.05;;;;;;;6.77;100.00;103308.56;5009237;28;20018;-68
2024/01/31 02:33:09;;;;;;;9.75;5.07;;;;;;;6.69;100.00;103298.94;5014338;28;20425;-68
2024/01/31 02:35:34;;;;;;;10.35;4.20;;;;;;;6.75;100.00;103309.47;5014214;28;20026;-68
2024/01/31 02:38:00;;;;;;;14.90;5.40;;;;;;;6.74;100.00;103313.88;5013571;28;20163;-68
2024/01/31 02:40:27;;;;;;;7.72;4.05;;;;;;;6.73;100.00;103321.81;5014150;28;20500;-67
2024/01/31 02:42:53;;;;;;;13.02;4.32;;;;;;;6.50;100.00;103282.31;5014261;28;20407;-68
2024/01/31 02:45:19;;;;;;;11.00;4.40;;;;;;;6.60;100.00;103303.41;5012932;28;20030;-68
2024/01/31 02:47:44;;;;;;;5.13;3.90;;;;;;;6.67;100.00;103313.94;5013791;28;20033;-68
2024/01/31 02:50:09;;;;;;;12.43;4.63;;;;;;;6.68;100.00;103310.41;5014493;28;20018;-68
2024/01/31 02:52:35;;;;;;;5.18;3.85;;;;;;;6.70;100.00;103319.19;5013212;28;20397;-68
2024/01/31 02:55:02;;;;;;;10.98;4.47;;;;;;;6.70;100.00;103309.50;5010832;28;20026;-68
2024/01/31 02:57:28;;;;;;;11.77;5.25;;;;;;;6.67;100.00;103300.72;4996146;28;20026;-68
2024/01/31 02:59:53;;;;;;;7.72;4.40;;;;;;;6.64;100.00;103292.78;4993876;28;20026;-68
2024/01/31 03:02:18;;;;;;;14.65;5.75;;;;;;;6.69;100.00;103297.16;5009328;28;20018;-68
2024/01/31 03:04:44;;;;;;;13.07;5.55;;;;;;;6.69;100.00;103291.00;5007314;28;20027;-68
2024/01/31 03:07:10;;;;;;;17.90;6.70;;;;;;;6.70;100.00;103296.25;4994235;28;20032;-68
2024/01/31 03:09:37;;;;;;;11.35;4.93;;;;;;;6.64;100.00;103277.81;4994475;28;20023;-68
2024/01/31 03:12:04;;;;;;;11.07;4.85;;;;;;;6.71;100.00;103284.81;4993110;28;20030;-68
2024/01/31 03:14:33;;;;;;;12.07;5.95;;;;;;;6.69;100.00;103286.59;5004830;28;20112;-68
2024/01/31 03:16:58;;;;;;;12.13;5.90;;;;;;;6.65;100.00;103283.97;5010783;28;20033;-68
2024/01/31 03:19:28;;;;;;;17.15;5.80;;;;;;;6.63;100.00;103277.84;5011514;28;20060;-68
2024/01/31 03:21:53;;;;;;;11.15;6.32;;;;;;;6.62;100.00;103287.53;4998828;28;20030;-68
2024/01/31 03:24:19;;;;;;;12.93;6.53;;;;;;;6.58;100.00;103273.44;4999375;28;20382;-68
2024/01/31 03:26:44;;;;;;;12.07;6.00;;;;;;;6.70;100.00;103276.88;5001581;28;20041;-68
2024/01/31 03:29:10;;;;;;;14.82;5.97;;;;;;;6.72;100.00;103272.47;5009598;28;20034;-68
2024/01/31 03:31:35;;;;;;;17.58;7.00;;;;;;;6.72;100.00;103272.47;4994619;28;20030;-68
2024/01/31 03:34:01;;;;;;;14.32;5.80;;;;;;;6.69;100.00;103275.13;5006822;28;20477;-68
2024/01/31 03:36:29;;;;;;;12.30;6.78;;;;;;;6.61;100.00;103256.69;4995053;28;20033;-68
2024/01/31 03:38:55;;;;;;;17.83;6.85;;;;;;;6.67;100.00;103267.19;5010612;28;20026;-68
2024/01/31 03:41:23;;;;;;;11.77;6.53;;;;;;;6.63;100.00;103268.13;5012540;28;20061;-68
2024/01/31 03:43:48;;;;;;;15.90;7.22;;;;;;;6.64;100.00;103271.66;5012825;28;20057;-68
2024/01/31 03:46:14;;;;;;;13.15;6.85;;;;;;;6.60;100.00;103263.72;5011345;28;20060;-68
2024/01/31 03:48:40;;;;;;;21.02;7.78;;;;;;;6.63;100.00;103262.84;5013103;28;20029;-68
2024/01/31 03:51:05;;;;;;;15.55;7.10;;;;;;;6.60;100.00;103263.72;5011627;28;20022;-68
2024/01/31 03:53:31;;;;;;;18.95;7.50;;;;;;;6.56;100.00;103262.00;5012192;28;20108;-68
2024/01/31 03:55:56;;;;;;;18.13;7.93;;;;;;;6.49;100.00;103248.84;5013849;28;20026;-68
2024/01/31 03:58:22;;;;;;;18.00;7.60;;;;;;;6.54;100.00;103258.50;5011158;28;20022;-68
2024/01/31 04:00:47;;;;;;;12.13;7.00;;;;;;;6.46;100.00;103235.66;5012223;28;20026;-68
2024/01/31 04:03:13;;;;;;;22.60;7.18;;;;;;;6.56;100.00;103261.16;5010954;28;20021;-68
2024/01/31 04:05:38;;;;;;;13.95;7.00;;;;;;;6.54;100.00;103273.47;5010924;28;20030;-68
2024/01/31 04:08:04;;;;;;;16.23;7.03;;;;;;;6.53;100.00;103267.31;5011457;28;20038;-68
2024/01/31 04:10:30;;;;;;;14.70;6.70;;;;;;;6.51;100.00;103261.16;5011415;28;20114;-68
2024/01/31 04:12:55;;;;;;;15.10;7.97;;;;;;;6.49;100.00;103252.34;5012268;28;20064;-68
2024/01/31 04:15:20;;;;;;;14.15;7.15;;;;;;;6.45;100.00;103250.63;5012223;28;20065;-68
2024/01/31 04:17:46;;;;;;;15.93;8.38;;;;;;;6.48;100.00;103253.25;5010475;28;20045;-68
2024/01/31 04:20:12;;;;;;;19.25;9.10;;;;;;;6.49;100.00;103260.28;5011454;28;20546;-68
2024/01/31 04:22:42;;;;;;;18.77;8.05;;;;;;;6.49;100.00;103262.06;5011555;28;20022;-68
2024/01/31 04:25:08;;;;;;;13.18;7.97;;;;;;;6.45;100.00;103253.28;5012540;28;20041;-68
2024/01/31 04:27:33;;;;;;;15.43;8.40;;;;;;;6.48;100.00;103263.84;5011913;28;20080;-68
2024/01/31 04:29:59;;;;;;;17.20;9.43;;;;;;;6.42;100.00;103247.16;5010529;28;20037;-68
2024/01/31 04:32:26;;;;;;;18.98;8.30;;;;;;;6.44;100.00;103259.47;5011663;28;20034;-68
2024/01/31 04:34:52;;;;;;;15.65;9.43;;;;;;;6.41;100.00;103253.28;5010394;28;20026;-68
2024/01/31 04:37:17;;;;;;;17.98;8.55;;;;;;;6.41;100.00;103261.22;5011457;28;20520;-68
2024/01/31 04:39:43;;;;;;;21.10;9.35;;;;;;;6.39;100.00;103269.19;5011726;28;20061;-68
2024/01/31 04:42:09;;;;;;;17.52;9.30;;;;;;;6.39;100.00;103258.59;5012164;28;20485;-68
2024/01/31 04:44:35;;;;;;;20.88;10.18;;;;;;;6.36;100.00;103250.69;5011831;28;20036;-68
2024/01/31 04:47:00;;;;;;;19.98;9.25;;;;;;;6.37;100.00;103255.97;5010555;28;20109;-68
2024/01/31 04:49:28;;;;;;;19.60;9.35;;;;;;;6.37;100.00;103260.38;5010902;28;20029;-68
2024/01/31 04:51:54;;;;;;;21.90;10.38;;;;;;;6.36;100.00;103250.69;5010618;28;20037;-68
2024/01/31 04:54:19;;;;;;;13.80;9.10;;;;;;;6.36;100.00;103264.78;5010777;28;20469;-68
2024/01/31 04:56:45;;;;;;;17.73;9.85;;;;;;;6.27;100.00;103243.72;5003557;28;20045;-68
2024/01/31 04:59:12;;;;;;;17.48;9.65;;;;;;;6.30;100.00;103248.09;4992992;28;20038;-68
2024/01/31 05:01:38;;;;;;;15.88;8.15;;;;;;;6.29;100.00;103254.25;5007313;28;20025;-68
2024/01/31 05:04:03;;;;;;;17.95;8.43;;;;;;;6.33;100.00;103256.88;5011075;28;20032;-68
2024/01/31 05:06:29;;;;;;;18.48;8.77;;;;;;;6.12;100.00;103228.84;5009275;28;20083;-68
2024/01/31 05:08:57;;;;;;;19.58;9.30;;;;;;;6.21;100.00;103241.09;5010761;28;20105;-68
2024/01/31 05:11:23;;;;;;;19.85;9.68;;;;;;;6.24;100.00;103251.66;5008606;28;20026;-67
2024/01/31 05:13:48;;;;;;;22.65;9.70;;;;;;;6.21;100.00;103249.03;5010833;28;20495;-68
2024/01/31 05:16:13;;;;;;;18.40;10.68;;;;;;;6.19;100.00;103245.50;5009686;28;20461;-68
2024/01/31 05:18:39;;;;;;;23.65;10.23;;;;;;;6.20;100.00;103252.53;5010682;28;20164;-68
2024/01/31 05:21:05;;;;;;;17.05;10.48;;;;;;;6.19;100.00;103242.88;5010223;28;20021;-68
2024/01/31 05:23:30;;;;;;;20.33;10.45;;;;;;;6.22;100.00;103248.13;5010444;28;20065;-68
2024/01/31 05:25:56;;;;;;;23.42;10.25;;;;;;;6.25;100.00;103244.59;5010101;28;20100;-67
2024/01/31 05:28:21;;;;;;;18.70;10.93;;;;;;;6.27;100.00;103245.47;5011262;28;20032;-67
2024/01/31 05:30:47;;;;;;;27.50;11.02;;;;;;;6.18;100.00;103238.50;5011048;28;20393;-67
2024/01/31 05:33:12;;;;;;;19.85;9.90;;;;;;;6.16;100.00;103237.59;4995343;28;20393;-67
2024/01/31 05:35:38;;;;;;;20.67;10.30;;;;;;;6.19;100.00;103239.34;5010820;28;20104;-68
2024/01/31 05:38:05;;;;;;;22.77;10.38;;;;;;;6.19;100.00;103242.00;5010659;28;20029;-68
2024/01/31 05:40:31;;;;;;;22.92;10.50;;;;;;;6.11;100.00;103240.25;5010553;28;20969;-66
2024/01/31 05:42:56;;;;;;;26.45;11.02;;;;;;;6.19;100.00;103250.81;5010569;28;20026;-68
2024/01/31 05:45:23;;;;;;;24.00;10.90;;;;;;;6.21;100.00;103251.69;5011180;28;20037;-67
2024/01/31 05:47:48;;;;;;;25.17;11.15;;;;;;;6.23;100.00;103249.88;5010582;28;20025;-68
2024/01/31 05:50:14;;;;;;;23.80;10.52;;;;;;;6.17;100.00;103244.63;5010520;28;20432;-67
2024/01/31 05:52:39;;;;;;;19.58;10.63;;;;;;;6.19;100.00;103239.34;5010218;28;20026;-67
2024/01/31 05:55:05;;;;;;;32.33;12.18;;;;;;;6.24;100.00;103248.16;5010603;28;20030;-68
2024/01/31 05:57:30;;;;;;;25.15;12.25;;;;;;;6.13;100.00;103243.78;5010570;28;20088;-68
2024/01/31 05:59:56;;;;;;;27.33;12.70;;;;;;;6.21;100.00;103251.69;5009255;28;20026;-67
2024/01/31 06:02:21;;;;;;;25.63;11.57;;;;;;;6.14;100.00;103234.97;5008896;28;20038;-67
2024/01/31 06:04:47;;;;;;;22.42;11.02;;;;;;;6.24;100.00;103249.00;5009931;28;20033;-68
2024/01/31 06:07:15;;;;;;;24.45;10.88;;;;;;;6.26;100.00;103254.28;5008782;28;20043;-67
2024/01/31 06:09:40;;;;;;;22.10;11.70;;;;;;;6.25;100.00;103263.09;5009213;28;20032;-68
2024/01/31 06:12:06;;;;;;;21.10;12.02;;;;;;;6.23;100.00;103255.16;5010219;28;20046;-68
2024/01/31 06:14:32;;;;;;;26.30;11.90;;;;;;;6.12;100.00;103241.16;5009286;28;20473;-68
2024/01/31 06:16:58;;;;;;;24.40;11.38;;;;;;;6.17;100.00;103247.28;5006229;28;20026;-67
2024/01/31 06:19:23;;;;;;;20.40;11.93;;;;;;;6.23;100.00;103246.38;4999487;28;20027;-67
2024/01/31 06:21:49;;;;;;;19.33;11.98;;;;;;;6.25;100.00;103249.88;4998615;28;20058;-67
2024/01/31 06:24:14;;;;;;;26.52;12.13;;;;;;;6.23;100.00;103239.31;5004003;28;20559;-68
2024/01/31 06:26:41;;;;;;;29.92;14.00;;;;;;;6.24;100.00;103240.22;5005522;28;20045;-67
2024/01/31 06:29:06;;;;;;;23.58;12.60;;;;;;;6.22;100.00;103226.13;4993272;28;20029;-67
2024/01/31 06:31:35;;;;;;;31.77;12.98;;;;;;;6.19;100.00;103219.09;4992330;28;20022;-67
2024/01/31 06:34:01;;;;;;;25.60;12.82;;;;;;;6.18;100.00;103227.91;4990435;28;20091;-68
2024/01/31 06:36:26;;;;;;;26.02;13.00;;;;;;;6.17;100.00;103217.34;4995303;28;20132;-67
2024/01/31 06:38:54;;;;;;;23.48;12.27;;;;;;;6.17;100.00;103218.22;5008631;28;20144;-68
2024/01/31 06:41:19;;;;;;;30.10;12.75;;;;;;;6.16;100.00;103212.97;5000689;28;20045;-67
2024/01/31 06:43:45;;;;;;;29.17;14.20;;;;;;;6.17;100.00;103204.13;5000179;28;20034;-67
2024/01/31 06:46:10;;;;;;;29.58;14.20;;;;;;;6.13;100.00;103203.28;5007701;28;20037;-67
2024/01/31 06:48:36;;;;;;;24.98;13.98;;;;;;;6.09;100.00;103189.22;5006133;28;20497;-67
2024/01/31 06:51:02;;;;;;;28.02;15.00;;;;;;;5.86;100.00;103162.91;5004117;28;20112;-67
2024/01/31 06:53:29;;;;;;;30.63;13.48;;;;;;;6.01;100.00;103185.75;4992321;28;20038;-67
2024/01/31 06:55:54;;;;;;;27.52;13.73;;;;;;;6.01;100.00;103198.09;4992408;28;20529;-67
2024/01/31 06:58:20;;;;;;;26.23;12.10;;;;;;;6.03;100.00;103210.41;4992287;28;20101;-67
2024/01/31 07:00:45;;;;;;;30.15;14.13;;;;;;;6.01;100.00;103200.72;4999352;28;20164;-68
2024/01/31 07:03:11;;;;;;;28.20;14.95;;;;;;;5.98;100.00;103201.63;5008093;28;20026;-67
2024/01/31 07:05:39;;;;;;;25.55;13.63;;;;;;;5.96;100.00;103206.03;5008031;28;20397;-67
2024/01/31 07:08:05;;;;;;;32.65;14.98;;;;;;;5.99;100.00;103227.13;5007347;28;20457;-68
2024/01/31 07:10:30;;;;;;;28.85;14.02;;;;;;;5.95;100.00;103221.88;5009581;28;20083;-67
2024/01/31 07:12:55;;;;;;;26.73;12.68;;;;;;;6.04;100.00;103245.63;5009947;28;20045;-67
2024/01/31 07:15:23;;;;;;;29.77;15.40;;;;;;;6.02;100.00;103256.16;5009504;28;20030;-67
2024/01/31 07:17:48;;;;;;;28.50;14.02;;;;;;;6.04;100.00;103266.75;5011617;28;20037;-67
2024/01/31 07:20:15;;;;;;;27.02;14.35;;;;;;;6.03;100.00;103273.78;5013602;28;20022;-67
2024/01/31 07:22:41;;;;;;;28.85;14.02;;;;;;;6.08;100.00;103276.41;5013333;28;20105;-67
2024/01/31 07:25:10;;;;;;;31.00;14.52;;;;;;;6.09;100.00;103286.97;5012515;28;20438;-67
2024/01/31 07:27:38;;;;;;;31.15;15.45;;;;;;;6.08;100.00;103286.97;5013374;28;20033;-67
2024/01/31 07:30:04;;;;;;;26.13;13.80;;;;;;;6.06;100.00;103291.38;5012993;28;20392;-67
2024/01/31 07:32:29;;;;;;;28.33;14.30;;;;;;;6.10;100.00;103293.13;5013003;28;20473;-67
2024/01/31 07:34:55;;;;;;;31.73;14.57;;;;;;;6.07;100.00;103301.94;5013282;28;20028;-67
2024/01/31 07:37:20;;;;;;;28.88;14.80;;;;;;;6.10;100.00;103306.34;5012649;28;20018;-67
2024/01/31 07:39:45;;;;;;;31.98;15.40;;;;;;;6.11;100.00;103303.66;5012821;28;20095;-67
2024/01/31 07:42:12;;;;;;;32.53;15.60;;;;;;;6.12;100.00;103300.16;5012556;28;20046;-67
2024/01/31 07:44:38;;;;;;;31.70;15.50;;;;;;;6.12;100.00;103307.22;5012537;28;20438;-67
2024/01/31 07:47:03;;;;;;;36.65;15.98;;;;;;;6.09;100.00;103305.47;5011244;28;20053;-67
2024/01/31 07:49:30;;;;;;;31.15;15.15;;;;;;;6.13;100.00;103299.25;5012976;28;20080;-67
2024/01/31 07:51:57;;;;;;;28.15;15.02;;;;;;;6.13;100.00;103303.69;5010153;28;20112;-67
2024/01/31 07:54:22;;;;;;;28.17;15.60;;;;;;;6.13;100.00;103293.09;5011262;28;20022;-67
2024/01/31 07:56:48;;;;;;;31.48;16.38;;;;;;;6.07;100.00;103291.38;5006719;28;20492;-67
2024/01/31 07:59:13;;;;;;;37.67;16.50;;;;;;;6.11;100.00;103303.66;5012155;28;20101;-67
2024/01/31 08:01:39;;;;;;;28.33;15.07;;;;;;;6.06;100.00;103294.91;5010034;28;20335;-68
2024/01/31 08:04:04;;;;;;;33.28;15.10;;;;;;;6.10;100.00;103293.13;4996781;28;20022;-67
2024/01/31 08:06:30;;;;;;;36.05;15.52;;;;;;;6.12;100.00;103291.38;5008213;28;20034;-68
2024/01/31 08:08:55;;;;;;;27.25;15.60;;;;;;;6.06;100.00;103284.34;5000725;28;20142;-67
2024/01/31 08:11:20;;;;;;;33.92;16.13;;;;;;;6.16;100.00;103295.72;4998122;28;20080;-67
2024/01/31 08:13:46;;;;;;;32.08;16.05;;;;;;;6.14;100.00;103281.66;5008254;28;20363;-68
2024/01/31 08:16:12;;;;;;;29.77;15.32;;;;;;;6.11;100.00;103264.03;5009139;28;20045;-68
2024/01/31 08:18:37;;;;;;;36.28;17.20;;;;;;;6.11;100.00;103268.44;5011517;28;20029;-67
2024/01/31 08:21:03;;;;;;;32.78;16.67;;;;;;;6.17;100.00;103288.69;5000416;28;20474;-67
2024/01/31 08:23:28;;;;;;;31.88;17.33;;;;;;;6.18;100.00;103293.06;5002621;28;20450;-68
2024/01/31 08:25:54;;;;;;;35.33;16.77;;;;;;;6.17;100.00;103294.84;5012197;28;20438;-67
2024/01/31 08:28:19;;;;;;;33.25;17.20;;;;;;;6.11;100.00;103279.91;5010651;28;20102;-68
2024/01/31 08:30:45;;;;;;;39.60;16.75;;;;;;;6.17;100.00;103286.91;5011493;28;20026;-67
2024/01/31 08:33:10;;;;;;;31.13;16.33;;;;;;;6.01;100.00;103246.50;5010380;28;20033;-67
2024/01/31 08:35:36;;;;;;;37.25;17.92;;;;;;;6.26;100.00;103288.63;5010692;28;20028;-67
2024/01/31 08:38:01;;;;;;;31.65;15.85;;;;;;;6.26;100.00;103278.06;5009070;28;20093;-67
2024/01/31 08:40:26;;;;;;;39.55;17.23;;;;;;;6.28;100.00;103279.81;5011345;28;20036;-66
2024/01/31 08:42:58;;;;;;;32.83;16.65;;;;;;;6.30;100.00;103275.41;5009745;28;20029;-67
2024/01/31 08:45:23;;;;;;;35.55;16.80;;;;;;;6.30;100.00;103269.25;5010918;28;20092;-68
2024/01/31 08:47:49;;;;;;;37.92;17.85;;;;;;;6.30;100.00;103258.69;5011189;28;20033;-68
2024/01/31 08:50:14;;;;;;;37.47;17.23;;;;;;;6.31;100.00;103268.34;5011160;28;20121;-68
2024/01/31 08:52:42;;;;;;;38.85;17.55;;;;;;;6.32;100.00;103273.63;5010710;28;20109;-68
2024/01/31 08:55:08;;;;;;;42.80;18.25;;;;;;;6.35;100.00;103264.78;5009213;28;20037;-68
2024/01/31 08:57:33;;;;;;;42.20;18.55;;;;;;;6.34;100.00;103261.28;5010238;28;20117;-68
2024/01/31 08:59:59;;;;;;;39.15;18.08;;;;;;;6.32;100.00;103251.59;5012296;28;20041;-68
2024/01/31 09:02:24;;;;;;;37.88;17.88;;;;;;;6.36;100.00;103250.69;5012050;28;20029;-68
2024/01/31 09:04:49;;;;;;;35.50;16.90;;;;;;;6.35;100.00;103246.28;5012580;28;20033;-68
2024/01/31 09:07:15;;;;;;;40.17;16.77;;;;;;;6.35;100.00;103246.28;5012232;28;20033;-68
2024/01/31 09:09:40;;;;;;;45.63;18.58;;;;;;;6.29;100.00;103225.19;5010140;28;20033;-68
2024/01/31 09:12:06;;;;;;;46.78;18.67;;;;;;;6.35;100.00;103236.63;4992966;28;20026;-68
2024/01/31 09:14:33;;;;;;;45.78;19.63;;;;;;;6.34;100.00;103226.91;4992732;28;20088;-68
2024/01/31 09:16:58;;;;;;;40.58;19.90;;;;;;;6.37;100.00;103228.66;4992662;28;20026;-68
2024/01/31 09:19:24;;;;;;;36.53;18.73;;;;;;;6.39;100.00;103224.25;4993945;28;20018;-68
2024/01/31 09:21:50;;;;;;;42.90;19.60;;;;;;;6.39;100.00;103216.31;4991470;28;20068;-68
2024/01/31 09:24:16;;;;;;;39.95;20.40;;;;;;;6.39;100.00;103204.88;4995591;28;20030;-68
2024/01/31 09:26:41;;;;;;;45.58;19.25;;;;;;;6.42;100.00;103211.00;4999266;28;20486;-68
2024/01/31 09:29:06;;;;;;;39.65;18.77;;;;;;;6.37;100.00;103197.81;4992334;28;20034;-68
2024/01/31 09:31:32;;;;;;;37.55;19.00;;;;;;;6.38;100.00;103196.03;4998804;28;20029;-67
2024/01/31 09:33:57;;;;;;;40.08;19.98;;;;;;;6.42;100.00;103204.84;5009960;28;20378;-68
2024/01/31 09:36:23;;;;;;;47.45;20.48;;;;;;;6.39;100.00;103191.66;5011299;28;20416;-68
2024/01/31 09:38:48;;;;;;;43.85;20.55;;;;;;;6.43;100.00;103204.81;5010112;28;20076;-68
2024/01/31 09:41:15;;;;;;;38.58;19.33;;;;;;;6.45;100.00;103203.06;5009827;28;20125;-68
2024/01/31 09:43:41;;;;;;;46.72;21.60;;;;;;;6.44;100.00;103198.66;5009064;28;20037;-68
2024/01/31 09:46:07;;;;;;;42.15;20.30;;;;;;;6.44;100.00;103190.75;5009352;28;20493;-68
2024/01/31 09:48:33;;;;;;;40.17;20.08;;;;;;;6.48;100.00;103189.81;5011295;28;20032;-67
2024/01/31 09:51:01;;;;;;;43.35;22.48;;;;;;;6.43;100.00;103166.94;5010488;28;20034;-68
2024/01/31 09:53:27;;;;;;;34.80;19.50;;;;;;;6.56;100.00;103181.84;5010186;28;20069;-68
2024/01/31 09:55:55;;;;;;;49.60;19.70;;;;;;;6.54;100.00;103178.31;5011592;28;20054;-68
2024/01/31 09:58:23;;;;;;;35.65;18.52;;;;;;;6.52;100.00;103158.94;5011756;28;20037;-68
2024/01/31 10:00:51;;;;;;;42.08;19.92;;;;;;;6.64;100.00;103176.44;5011427;28;20062;-68
2024/01/31 10:03:16;;;;;;;39.45;19.70;;;;;;;6.69;100.00;103175.53;5010483;28;20465;-68
2024/01/31 10:05:42;;;;;;;35.75;17.45;;;;;;;6.75;100.00;103182.53;5010481;28;20124;-68
2024/01/31 10:08:07;;;;;;;29.75;16.05;;;;;;;6.76;100.00;103190.44;5011169;28;20030;-68
2024/01/31 10:10:33;;;;;;;36.53;17.52;;;;;;;6.80;100.00;103193.94;5010126;28;20022;-68
2024/01/31 10:12:59;;;;;;;31.00;16.20;;;;;;;6.85;100.00;103194.75;5010219;28;20109;-68
2024/01/31 10:15:24;;;;;;;34.03;17.10;;;;;;;6.91;100.00;103200.00;5011819;28;20400;-68
2024/01/31 10:17:49;;;;;;;30.38;16.23;;;;;;;6.89;100.00;103196.50;5011360;28;20499;-68
2024/01/31 10:20:15;;;;;;;27.80;13.57;;;;;;;6.91;100.00;103199.13;5011716;28;20449;-68
2024/01/31 10:22:43;;;;;;;25.85;13.65;;;;;;;6.88;100.00;103210.59;5010891;28;20377;-67
2024/01/31 10:25:10;;;;;;;30.30;14.90;;;;;;;6.83;100.00;103197.44;5011672;28;20033;-68
2024/01/31 10:27:36;;;;;;;26.88;15.02;;;;;;;6.91;100.00;103207.94;5011389;28;20504;-68
2024/01/31 10:30:08;;;;;;;29.30;13.68;;;;;;;6.85;100.00;103193.88;5011610;28;20026;-68
2024/01/31 10:32:35;;;;;;;23.73;14.02;;;;;;;6.97;100.00;103218.47;5011064;28;20088;-68
2024/01/31 10:35:03;;;;;;;26.88;14.18;;;;;;;6.96;100.00;103214.06;5011578;28;20037;-68
2024/01/31 10:37:29;;;;;;;28.13;15.13;;;;;;;6.97;100.00;103215.81;5009411;28;20034;-68
2024/01/31 10:39:59;;;;;;;25.88;13.57;;;;;;;6.97;100.00;103204.34;5011320;28;20033;-68
2024/01/31 10:42:25;;;;;;;21.05;14.15;;;;;;;6.96;100.00;103206.13;5011171;28;20053;-68
2024/01/31 10:44:51;;;;;;;25.58;13.98;;;;;;;6.91;100.00;103197.38;5010075;28;20099;-68
2024/01/31 10:47:17;;;;;;;20.70;12.07;;;;;;;6.98;100.00;103220.22;5011290;28;20026;-68
2024/01/31 10:49:42;;;;;;;19.42;11.60;;;;;;;6.91;100.00;103204.41;5011260;28;20164;-68
2024/01/31 10:52:13;;;;;;;19.25;12.50;;;;;;;6.97;100.00;103212.28;5011934;28;20030;-68
2024/01/31 10:54:46;;;;;;;18.02;11.18;;;;;;;6.96;100.00;103214.06;5015154;28;20026;-68
2024/01/31 10:57:13;;;;;;;22.23;13.07;;;;;;;6.96;100.00;103203.47;5015139;28;20388;-68
2024/01/31 10:59:40;;;;;;;22.55;12.52;;;;;;;6.91;100.00;103196.47;5015063;28;20030;-68
2024/01/31 11:02:13;;;;;;;21.75;11.93;;;;;;;6.96;100.00;103195.53;5014394;28;20188;-68
2024/01/31 11:04:39;;;;;;;23.52;12.27;;;;;;;6.95;100.00;103193.78;5014680;28;20081;-68
2024/01/31 11:07:04;;;;;;;19.83;12.57;;;;;;;6.98;100.00;103201.69;5014063;28;20079;-68
2024/01/31 11:09:32;;;;;;;17.05;12.23;;;;;;;7.02;100.00;103197.25;5014709;28;20469;-69